sensor_id;sensor_type;location;lat;lon;timestamp;pressure;altitude;pressure_sealevel;temperature;humidity
19789;BME280;10054;59.332;18.244;2022-08-19T00:00:11;100928.26;;;19.56;100.00
19789;BME280;10054;59.332;18.244;2022-08-19T00:02:42;100927.27;;;19.57;100.00
19789;BME280;10054;59.332;18.244;2022-08-19T00:05:11;100928.81;;;19.59;100.00
19789;BME280;10054;59.332;18.244;2022-08-19T00:07:42;100931.69;;;19.62;100.00
19789;BME280;10054;59.332;18.244;2022-08-19T00:10:12;100929.85;;;19.62;100.00
19789;BME280;10054;59.332;18.244;2022-08-19T00:12:42;100924.50;;;19.62;100.00
19789;BME280;10054;59.332;18.244;2022-08-19T00:15:14;100923.52;;;19.63;100.00
19789;BME280;10054;59.332;18.244;2022-08-19T00:17:44;100923.36;;;19.65;100.00
19789;BME280;10054;59.332;18.244;2022-08-19T00:20:16;100917.72;;;19.68;100.00
19789;BME280;10054;59.332;18.244;2022-08-19T00:22:46;100916.58;;;19.71;100.00
19789;BME280;10054;59.332;18.244;2022-08-19T00:25:17;100915.09;;;19.72;100.00
19789;BME280;10054;59.332;18.244;2022-08-19T00:27:46;100914.80;;;19.75;100.00
19789;BME280;10054;59.332;18.244;2022-08-19T00:30:15;100914.66;;;19.77;100.00
19789;BME280;10054;59.332;18.244;2022-08-19T00:32:44;100915.70;;;19.80;100.00
19789;BME280;10054;59.332;18.244;2022-08-19T00:35:13;100907.02;;;19.82;100.00
19789;BME280;10054;59.332;18.244;2022-08-19T00:37:42;100902.36;;;19.84;100.00
19789;BME280;10054;59.332;18.244;2022-08-19T00:40:13;100898.20;;;19.85;100.00
19789;BME280;10054;59.332;18.244;2022-08-19T00:42:42;100901.56;;;19.87;100.00
19789;BME280;10054;59.332;18.244;2022-08-19T00:45:18;100889.02;;;19.88;100.00
19789;BME280;10054;59.332;18.244;2022-08-19T00:47:47;100891.05;;;19.90;100.00
19789;BME280;10054;59.332;18.244;2022-08-19T00:50:18;100892.89;;;19.89;100.00
19789;BME280;10054;59.332;18.244;2022-08-19T00:52:49;100886.39;;;19.92;100.00
19789;BME280;10054;59.332;18.244;2022-08-19T00:55:21;100890.11;;;19.95;100.00
19789;BME280;10054;59.332;18.244;2022-08-19T00:57:59;100889.96;;;19.96;100.00
19789;BME280;10054;59.332;18.244;2022-08-19T01:00:29;100892.48;;;19.98;100.00
19789;BME280;10054;59.332;18.244;2022-08-19T01:02:58;100891.84;;;20.00;100.00
19789;BME280;10054;59.332;18.244;2022-08-19T01:05:28;100896.06;;;20.03;100.00
19789;BME280;10054;59.332;18.244;2022-08-19T01:07:59;100892.88;;;20.03;100.00
19789;BME280;10054;59.332;18.244;2022-08-19T01:10:31;100900.27;;;20.05;100.00
19789;BME280;10054;59.332;18.244;2022-08-19T01:13:01;100897.75;;;20.08;100.00
19789;BME280;10054;59.332;18.244;2022-08-19T01:15:34;100895.08;;;20.08;100.00
19789;BME280;10054;59.332;18.244;2022-08-19T01:18:06;100898.30;;;20.11;100.00
19789;BME280;10054;59.332;18.244;2022-08-19T01:20:34;100894.78;;;20.11;100.00
19789;BME280;10054;59.332;18.244;2022-08-19T01:23:03;100888.08;;;20.11;100.00
19789;BME280;10054;59.332;18.244;2022-08-19T01:25:44;100882.23;;;20.11;100.00
19789;BME280;10054;59.332;18.244;2022-08-19T01:28:23;100883.07;;;20.12;100.00
19789;BME280;10054;59.332;18.244;2022-08-19T01:30:48;100878.41;;;20.14;100.00
19789;BME280;10054;59.332;18.244;2022-08-19T01:33:17;100885.94;;;20.14;100.00
19789;BME280;10054;59.332;18.244;2022-08-19T01:35:47;100881.43;;;20.15;100.00
19789;BME280;10054;59.332;18.244;2022-08-19T01:38:23;100879.74;;;20.14;100.00
19789;BME280;10054;59.332;18.244;2022-08-19T01:40:52;100885.94;;;20.14;100.00
19789;BME280;10054;59.332;18.244;2022-08-19T01:43:21;100886.44;;;20.14;100.00
19789;BME280;10054;59.332;18.244;2022-08-19T01:45:50;100887.78;;;20.14;100.00
19789;BME280;10054;59.332;18.244;2022-08-19T01:48:20;100888.28;;;20.13;100.00
19789;BME280;10054;59.332;18.244;2022-08-19T01:50:50;100891.80;;;20.14;100.00
19789;BME280;10054;59.332;18.244;2022-08-19T01:53:19;100886.94;;;20.13;100.00
19789;BME280;10054;59.332;18.244;2022-08-19T01:55:48;100890.95;;;20.13;100.00
19789;BME280;10054;59.332;18.244;2022-08-19T01:58:19;100899.84;;;20.14;100.00
19789;BME280;10054;59.332;18.244;2022-08-19T02:00:49;100894.97;;;20.13;100.00
19789;BME280;10054;59.332;18.244;2022-08-19T02:03:18;100887.93;;;20.12;100.00
19789;BME280;10054;59.332;18.244;2022-08-19T02:05:48;100885.20;;;20.08;100.00
19789;BME280;10054;59.332;18.244;2022-08-19T02:08:18;100891.41;;;20.09;100.00
19789;BME280;10054;59.332;18.244;2022-08-19T02:10:47;100885.55;;;20.09;100.00
19789;BME280;10054;59.332;18.244;2022-08-19T02:13:17;100884.71;;;20.09;100.00
19789;BME280;10054;59.332;18.244;2022-08-19T02:15:46;100883.38;;;20.09;100.00
19789;BME280;10054;59.332;18.244;2022-08-19T02:18:15;100877.17;;;20.08;100.00
19789;BME280;10054;59.332;18.244;2022-08-19T02:20:45;100875.34;;;20.09;100.00
19789;BME280;10054;59.332;18.244;2022-08-19T02:23:15;100878.52;;;20.08;100.00
19789;BME280;10054;59.332;18.244;2022-08-19T02:25:48;100876.67;;;20.09;100.00
19789;BME280;10054;59.332;18.244;2022-08-19T02:28:15;100873.16;;;20.08;100.00
19789;BME280;10054;59.332;18.244;2022-08-19T02:30:44;100883.07;;;20.12;100.00
19789;BME280;10054;59.332;18.244;2022-08-19T02:33:13;100880.89;;;20.11;100.00
19789;BME280;10054;59.332;18.244;2022-08-19T02:35:44;100881.23;;;20.12;100.00
19789;BME280;10054;59.332;18.244;2022-08-19T02:38:14;100884.60;;;20.14;100.00
19789;BME280;10054;59.332;18.244;2022-08-19T02:40:58;100876.57;;;20.14;100.00
19789;BME280;10054;59.332;18.244;2022-08-19T02:43:29;100883.95;;;20.16;100.00
19789;BME280;10054;59.332;18.244;2022-08-19T02:45:58;100881.28;;;20.16;100.00
19789;BME280;10054;59.332;18.244;2022-08-19T02:48:28;100880.09;;;20.15;100.00
19789;BME280;10054;59.332;18.244;2022-08-19T02:50:57;100887.63;;;20.15;100.00
19789;BME280;10054;59.332;18.244;2022-08-19T02:53:27;100892.14;;;20.15;100.00
19789;BME280;10054;59.332;18.244;2022-08-19T02:55:57;100894.83;;;20.15;100.00
19789;BME280;10054;59.332;18.244;2022-08-19T02:58:26;100891.16;;;20.16;100.00
19789;BME280;10054;59.332;18.244;2022-08-19T03:00:56;100885.45;;;20.15;100.00
19789;BME280;10054;59.332;18.244;2022-08-19T03:03:25;100884.65;;;20.18;100.00
19789;BME280;10054;59.332;18.244;2022-08-19T03:06:09;100892.69;;;20.18;100.00
19789;BME280;10054;59.332;18.244;2022-08-19T03:08:42;100895.36;;;20.18;100.00
19789;BME280;10054;59.332;18.244;2022-08-19T03:11:23;100895.36;;;20.18;100.00
19789;BME280;10054;59.332;18.244;2022-08-19T03:13:52;100895.36;;;20.18;100.00
19789;BME280;10054;59.332;18.244;2022-08-19T03:16:24;100896.02;;;20.16;100.00
19789;BME280;10054;59.332;18.244;2022-08-19T03:18:55;100884.11;;;20.15;100.00
19789;BME280;10054;59.332;18.244;2022-08-19T03:21:25;100883.77;;;20.14;100.00
19789;BME280;10054;59.332;18.244;2022-08-19T03:23:57;100882.42;;;20.14;100.00
19789;BME280;10054;59.332;18.244;2022-08-19T03:26:26;100881.43;;;20.15;100.00
19789;BME280;10054;59.332;18.244;2022-08-19T03:28:56;100881.28;;;20.16;100.00
19789;BME280;10054;59.332;18.244;2022-08-19T03:31:27;100882.96;;;20.17;100.00
19789;BME280;10054;59.332;18.244;2022-08-19T03:33:56;100885.84;;;20.20;100.00
19789;BME280;10054;59.332;18.244;2022-08-19T03:36:26;100884.84;;;20.21;100.00
19789;BME280;10054;59.332;18.244;2022-08-19T03:38:58;100881.32;;;20.20;100.00
19789;BME280;10054;59.332;18.244;2022-08-19T03:41:29;100880.98;;;20.19;100.00
19789;BME280;10054;59.332;18.244;2022-08-19T03:44:00;100891.20;;;20.20;100.00
19789;BME280;10054;59.332;18.244;2022-08-19T03:46:31;100891.00;;;20.17;100.00
19789;BME280;10054;59.332;18.244;2022-08-19T03:49:02;100880.78;;;20.17;100.00
19789;BME280;10054;59.332;18.244;2022-08-19T03:51:38;100878.60;;;20.16;100.00
19789;BME280;10054;59.332;18.244;2022-08-19T03:54:09;100884.65;;;20.18;100.00
19789;BME280;10054;59.332;18.244;2022-08-19T03:56:41;100889.51;;;20.19;100.00
19789;BME280;10054;59.332;18.244;2022-08-19T03:59:13;100895.36;;;20.18;100.00
19789;BME280;10054;59.332;18.244;2022-08-19T04:01:42;100897.05;;;20.19;100.00
19789;BME280;10054;59.332;18.244;2022-08-19T04:04:13;100904.09;;;20.20;100.00
19789;BME280;10054;59.332;18.244;2022-08-19T04:07:01;100896.70;;;20.18;100.00
19789;BME280;10054;59.332;18.244;2022-08-19T04:09:55;100889.66;;;20.17;100.00
19789;BME280;10054;59.332;18.244;2022-08-19T04:12:24;100894.02;;;20.18;100.00
19789;BME280;10054;59.332;18.244;2022-08-19T04:14:53;100886.98;;;20.17;100.00
19789;BME280;10054;59.332;18.244;2022-08-19T04:17:22;100887.33;;;20.18;100.00
19789;BME280;10054;59.332;18.244;2022-08-19T04:19:50;100894.22;;;20.21;100.00
19789;BME280;10054;59.332;18.244;2022-08-19T04:22:19;100897.59;;;20.23;100.00
19789;BME280;10054;59.332;18.244;2022-08-19T04:24:50;100907.02;;;20.27;100.00
19789;BME280;10054;59.332;18.244;2022-08-19T04:27:19;100907.20;;;20.29;100.00
19789;BME280;10054;59.332;18.244;2022-08-19T04:29:48;100910.58;;;20.31;100.00
19789;BME280;10054;59.332;18.244;2022-08-19T04:32:17;100912.95;;;20.34;100.00
19789;BME280;10054;59.332;18.244;2022-08-19T04:34:47;100916.33;;;20.37;100.00
19789;BME280;10054;59.332;18.244;2022-08-19T04:37:17;100912.19;;;20.38;100.00
19789;BME280;10054;59.332;18.244;2022-08-19T04:39:46;100920.77;;;20.42;100.00
19789;BME280;10054;59.332;18.244;2022-08-19T04:42:33;100917.78;;;20.45;100.00
19789;BME280;10054;59.332;18.244;2022-08-19T04:45:13;100925.66;;;20.46;100.00
19789;BME280;10054;59.332;18.244;2022-08-19T04:47:42;100929.53;;;20.48;100.00
19789;BME280;10054;59.332;18.244;2022-08-19T04:50:12;100929.38;;;20.49;100.00
19789;BME280;10054;59.332;18.244;2022-08-19T04:52:41;100926.89;;;20.52;100.00
19789;BME280;10054;59.332;18.244;2022-08-19T04:55:12;100931.27;;;20.53;100.00
19789;BME280;10054;59.332;18.244;2022-08-19T04:57:42;100931.95;;;20.55;100.00
19789;BME280;10054;59.332;18.244;2022-08-19T05:00:11;100931.98;;;20.59;100.00
19789;BME280;10054;59.332;18.244;2022-08-19T05:02:41;100926.36;;;20.66;100.00
19789;BME280;10054;59.332;18.244;2022-08-19T05:05:11;100926.40;;;20.70;100.00
19789;BME280;10054;59.332;18.244;2022-08-19T05:07:40;100926.25;;;20.72;100.00
19789;BME280;10054;59.332;18.244;2022-08-19T05:10:10;100926.09;;;20.73;100.00
19789;BME280;10054;59.332;18.244;2022-08-19T05:12:39;100920.92;;;20.76;100.00
19789;BME280;10054;59.332;18.244;2022-08-19T05:15:08;100918.77;;;20.83;100.00
19789;BME280;10054;59.332;18.244;2022-08-19T05:17:37;100921.68;;;20.90;100.00
19789;BME280;10054;59.332;18.244;2022-08-19T05:20:09;100914.33;;;20.92;100.00
19789;BME280;10054;59.332;18.244;2022-08-19T05:23:00;100916.35;;;20.94;100.00
19789;BME280;10054;59.332;18.244;2022-08-19T05:25:30;100904.84;;;21.02;100.00
19789;BME280;10054;59.332;18.244;2022-08-19T05:27:59;100902.25;;;21.14;100.00
19789;BME280;10054;59.332;18.244;2022-08-19T05:30:28;100902.39;;;21.30;100.00
19789;BME280;10054;59.332;18.244;2022-08-19T05:32:57;100900.63;;;21.43;100.00
19789;BME280;10054;59.332;18.244;2022-08-19T05:35:27;100901.54;;;21.63;100.00
19789;BME280;10054;59.332;18.244;2022-08-19T05:37:56;100896.29;;;21.92;100.00
19789;BME280;10054;59.332;18.244;2022-08-19T05:40:25;100903.48;;;22.25;100.00
19789;BME280;10054;59.332;18.244;2022-08-19T05:42:54;100901.14;;;22.51;100.00
19789;BME280;10054;59.332;18.244;2022-08-19T05:45:24;100901.50;;;22.76;100.00
19789;BME280;10054;59.332;18.244;2022-08-19T05:47:53;100903.38;;;23.00;100.00
19789;BME280;10054;59.332;18.244;2022-08-19T05:50:22;100898.11;;;23.15;100.00
19789;BME280;10054;59.332;18.244;2022-08-19T05:52:51;100897.58;;;23.32;100.00
19789;BME280;10054;59.332;18.244;2022-08-19T05:55:20;100898.88;;;23.48;100.00
19789;BME280;10054;59.332;18.244;2022-08-19T05:57:49;100892.98;;;23.61;100.00
19789;BME280;10054;59.332;18.244;2022-08-19T06:00:19;100891.09;;;23.73;100.00
19789;BME280;10054;59.332;18.244;2022-08-19T06:02:48;100897.74;;;23.85;100.00
19789;BME280;10054;59.332;18.244;2022-08-19T06:05:18;100894.83;;;23.95;100.00
19789;BME280;10054;59.332;18.244;2022-08-19T06:07:47;100897.31;;;24.05;100.00
19789;BME280;10054;59.332;18.244;2022-08-19T06:10:17;100891.72;;;24.10;100.00
19789;BME280;10054;59.332;18.244;2022-08-19T06:12:46;100895.30;;;24.03;100.00
19789;BME280;10054;59.332;18.244;2022-08-19T06:15:15;100889.36;;;24.11;100.00
19789;BME280;10054;59.332;18.244;2022-08-19T06:17:44;100889.36;;;24.11;100.00
19789;BME280;10054;59.332;18.244;2022-08-19T06:20:14;100885.98;;;24.13;100.00
19789;BME280;10054;59.332;18.244;2022-08-19T06:22:49;100893.69;;;24.20;100.00
19789;BME280;10054;59.332;18.244;2022-08-19T06:25:18;100888.61;;;24.30;100.00
19789;BME280;10054;59.332;18.244;2022-08-19T06:27:47;100889.72;;;24.39;100.00
19789;BME280;10054;59.332;18.244;2022-08-19T06:30:16;100895.60;;;24.43;100.00
19789;BME280;10054;59.332;18.244;2022-08-19T06:32:45;100889.31;;;24.50;100.00
19789;BME280;10054;59.332;18.244;2022-08-19T06:35:13;100890.20;;;24.62;100.00
19789;BME280;10054;59.332;18.244;2022-08-19T06:37:43;100898.53;;;24.75;100.00
19789;BME280;10054;59.332;18.244;2022-08-19T06:40:12;100895.95;;;24.81;100.00
19789;BME280;10054;59.332;18.244;2022-08-19T06:42:41;100904.78;;;24.94;100.00
19789;BME280;10054;59.332;18.244;2022-08-19T06:45:10;100904.34;;;25.09;100.00
19789;BME280;10054;59.332;18.244;2022-08-19T06:47:39;100902.80;;;25.26;100.00
19789;BME280;10054;59.332;18.244;2022-08-19T06:50:10;100908.52;;;25.27;99.29
19789;BME280;10054;59.332;18.244;2022-08-19T06:52:39;100904.62;;;25.29;97.76
19789;BME280;10054;59.332;18.244;2022-08-19T06:55:08;100907.17;;;25.27;96.14
19789;BME280;10054;59.332;18.244;2022-08-19T06:57:38;100903.78;;;25.29;96.61
19789;BME280;10054;59.332;18.244;2022-08-19T07:00:07;100903.22;;;25.33;96.77
19789;BME280;10054;59.332;18.244;2022-08-19T07:02:45;100902.85;;;25.36;95.41
19789;BME280;10054;59.332;18.244;2022-08-19T07:05:14;100901.09;;;25.43;93.46
19789;BME280;10054;59.332;18.244;2022-08-19T07:07:43;100906.34;;;25.41;93.34
19789;BME280;10054;59.332;18.244;2022-08-19T07:10:15;100904.81;;;25.42;92.76
19789;BME280;10054;59.332;18.244;2022-08-19T07:12:44;100903.79;;;25.43;92.46
19789;BME280;10054;59.332;18.244;2022-08-19T07:15:15;100898.80;;;25.51;92.33
19789;BME280;10054;59.332;18.244;2022-08-19T07:17:44;100904.95;;;25.60;88.60
19789;BME280;10054;59.332;18.244;2022-08-19T07:20:13;100905.27;;;25.65;89.54
19789;BME280;10054;59.332;18.244;2022-08-19T07:22:42;100909.16;;;25.62;88.05
19789;BME280;10054;59.332;18.244;2022-08-19T07:25:13;100911.14;;;25.68;88.58
19789;BME280;10054;59.332;18.244;2022-08-19T07:27:43;100907.73;;;25.70;87.54
19789;BME280;10054;59.332;18.244;2022-08-19T07:30:12;100906.84;;;25.74;89.09
19789;BME280;10054;59.332;18.244;2022-08-19T07:32:42;100908.09;;;25.82;88.95
19789;BME280;10054;59.332;18.244;2022-08-19T07:35:11;100911.34;;;25.92;87.99
19789;BME280;10054;59.332;18.244;2022-08-19T07:37:40;100914.70;;;25.94;87.75
19789;BME280;10054;59.332;18.244;2022-08-19T07:40:11;100918.86;;;25.86;87.82
19789;BME280;10054;59.332;18.244;2022-08-19T07:42:41;100922.48;;;25.93;87.33
19789;BME280;10054;59.332;18.244;2022-08-19T07:45:10;100925.56;;;26.01;87.13
19789;BME280;10054;59.332;18.244;2022-08-19T07:47:39;100922.81;;;26.05;86.78
19789;BME280;10054;59.332;18.244;2022-08-19T07:50:10;100913.62;;;26.10;86.19
19789;BME280;10054;59.332;18.244;2022-08-19T07:52:39;100907.02;;;26.23;85.51
19789;BME280;10054;59.332;18.244;2022-08-19T07:55:10;100904.58;;;26.28;84.12
19789;BME280;10054;59.332;18.244;2022-08-19T07:57:39;100904.94;;;26.40;84.89
19789;BME280;10054;59.332;18.244;2022-08-19T08:00:08;100905.98;;;26.49;84.46
19789;BME280;10054;59.332;18.244;2022-08-19T08:02:38;100908.17;;;26.50;83.25
19789;BME280;10054;59.332;18.244;2022-08-19T08:05:09;100903.02;;;26.55;83.44
19789;BME280;10054;59.332;18.244;2022-08-19T08:07:56;100910.23;;;26.59;83.91
19789;BME280;10054;59.332;18.244;2022-08-19T08:10:43;100905.59;;;26.63;83.34
19789;BME280;10054;59.332;18.244;2022-08-19T08:13:13;100909.23;;;26.77;82.64
19789;BME280;10054;59.332;18.244;2022-08-19T08:15:42;100910.39;;;26.89;82.54
19789;BME280;10054;59.332;18.244;2022-08-19T08:18:12;100907.82;;;27.02;82.43
19789;BME280;10054;59.332;18.244;2022-08-19T08:20:41;100911.81;;;27.06;80.69
19789;BME280;10054;59.332;18.244;2022-08-19T08:23:10;100906.84;;;27.10;79.83
19789;BME280;10054;59.332;18.244;2022-08-19T08:25:55;100902.06;;;27.12;80.61
19789;BME280;10054;59.332;18.244;2022-08-19T08:28:26;100897.16;;;27.11;80.21
19789;BME280;10054;59.332;18.244;2022-08-19T08:30:58;100894.37;;;27.15;80.03
19789;BME280;10054;59.332;18.244;2022-08-19T08:33:29;100887.34;;;27.21;79.72
19789;BME280;10054;59.332;18.244;2022-08-19T08:35:57;100894.67;;;27.27;80.08
19789;BME280;10054;59.332;18.244;2022-08-19T08:38:26;100893.44;;;27.30;78.78
19789;BME280;10054;59.332;18.244;2022-08-19T08:40:59;100897.30;;;27.31;77.91
19789;BME280;10054;59.332;18.244;2022-08-19T08:43:39;100896.39;;;27.35;78.53
19789;BME280;10054;59.332;18.244;2022-08-19T08:48:41;100904.13;;;27.38;78.75
19789;BME280;10054;59.332;18.244;2022-08-19T08:51:34;100902.18;;;27.49;78.87
19789;BME280;10054;59.332;18.244;2022-08-19T08:53:43;100902.54;;;27.57;77.41
19789;BME280;10054;59.332;18.244;2022-08-19T08:56:14;100896.78;;;27.66;77.15
19789;BME280;10054;59.332;18.244;2022-08-19T08:58:58;100898.17;;;27.73;77.48
19789;BME280;10054;59.332;18.244;2022-08-19T09:01:27;100892.35;;;27.76;76.53
19789;BME280;10054;59.332;18.244;2022-08-19T09:03:57;100898.52;;;27.80;76.98
19789;BME280;10054;59.332;18.244;2022-08-19T09:09:26;100895.67;;;27.95;76.27
19789;BME280;10054;59.332;18.244;2022-08-19T09:15:03;100893.14;;;28.18;75.38
19789;BME280;10054;59.332;18.244;2022-08-19T09:17:28;100889.50;;;28.21;74.09
19789;BME280;10054;59.332;18.244;2022-08-19T09:20:19;100885.62;;;28.13;71.30
19789;BME280;10054;59.332;18.244;2022-08-19T09:22:48;100889.03;;;28.04;73.42
19789;BME280;10054;59.332;18.244;2022-08-19T09:25:20;100881.95;;;28.10;72.84
19789;BME280;10054;59.332;18.244;2022-08-19T09:27:51;100875.11;;;28.27;73.00
19789;BME280;10054;59.332;18.244;2022-08-19T09:30:24;100875.87;;;28.38;72.47
19789;BME280;10054;59.332;18.244;2022-08-19T09:32:55;100878.90;;;28.39;70.12
19789;BME280;10054;59.332;18.244;2022-08-19T09:35:26;100885.16;;;28.40;71.67
19789;BME280;10054;59.332;18.244;2022-08-19T09:37:57;100882.03;;;28.43;71.97
19789;BME280;10054;59.332;18.244;2022-08-19T09:40:28;100879.95;;;28.45;69.67
19789;BME280;10054;59.332;18.244;2022-08-19T09:42:58;100886.55;;;28.53;70.89
19789;BME280;10054;59.332;18.244;2022-08-19T09:45:29;100880.49;;;28.58;70.49
19789;BME280;10054;59.332;18.244;2022-08-19T09:47:58;100885.41;;;28.71;70.11
19789;BME280;10054;59.332;18.244;2022-08-19T09:50:27;100890.33;;;28.78;66.74
19789;BME280;10054;59.332;18.244;2022-08-19T09:52:58;100880.92;;;28.81;66.69
19789;BME280;10054;59.332;18.244;2022-08-19T09:55:27;100884.30;;;28.83;66.95
19789;BME280;10054;59.332;18.244;2022-08-19T09:57:56;100867.17;;;28.89;66.73
19789;BME280;10054;59.332;18.244;2022-08-19T10:00:25;100875.08;;;28.97;66.09
19789;BME280;10054;59.332;18.244;2022-08-19T10:02:54;100877.16;;;29.02;65.27
19789;BME280;10054;59.332;18.244;2022-08-19T10:05:23;100872.88;;;29.03;65.40
19789;BME280;10054;59.332;18.244;2022-08-19T10:08:10;100871.31;;;29.05;63.99
19789;BME280;10054;59.332;18.244;2022-08-19T10:10:41;100868.17;;;29.08;62.30
19789;BME280;10054;59.332;18.244;2022-08-19T10:13:15;100869.20;;;29.14;63.33
19789;BME280;10054;59.332;18.244;2022-08-19T10:15:45;100868.89;;;29.13;62.18
19789;BME280;10054;59.332;18.244;2022-08-19T10:18:14;100867.20;;;29.25;62.33
19789;BME280;10054;59.332;18.244;2022-08-19T10:20:50;100866.75;;;29.41;62.37
19789;BME280;10054;59.332;18.244;2022-08-19T10:23:16;100871.25;;;29.51;61.61
19789;BME280;10054;59.332;18.244;2022-08-19T10:25:45;100867.16;;;29.58;59.45
19789;BME280;10054;59.332;18.244;2022-08-19T10:28:14;100869.03;;;29.57;59.01
19789;BME280;10054;59.332;18.244;2022-08-19T10:30:44;100862.45;;;29.56;59.72
19789;BME280;10054;59.332;18.244;2022-08-19T10:33:14;100858.56;;;29.61;59.61
19789;BME280;10054;59.332;18.244;2022-08-19T10:35:43;100865.05;;;29.60;57.89
19789;BME280;10054;59.332;18.244;2022-08-19T10:38:13;100866.34;;;29.51;57.47
19789;BME280;10054;59.332;18.244;2022-08-19T10:40:42;100864.69;;;29.43;58.46
19789;BME280;10054;59.332;18.244;2022-08-19T10:46:04;100856.18;;;29.55;58.15
19789;BME280;10054;59.332;18.244;2022-08-19T10:48:33;100851.55;;;29.62;57.32
19789;BME280;10054;59.332;18.244;2022-08-19T10:51:02;100849.19;;;29.72;55.37
19789;BME280;10054;59.332;18.244;2022-08-19T10:53:51;100853.94;;;29.68;54.92
19789;BME280;10054;59.332;18.244;2022-08-19T10:56:20;100856.04;;;29.66;53.57
19789;BME280;10054;59.332;18.244;2022-08-19T10:59:07;100854.16;;;29.66;54.90
19789;BME280;10054;59.332;18.244;2022-08-19T11:01:36;100852.95;;;29.71;56.08
19789;BME280;10054;59.332;18.244;2022-08-19T11:04:05;100845.72;;;29.74;56.08
19789;BME280;10054;59.332;18.244;2022-08-19T11:06:36;100847.48;;;29.78;54.43
19789;BME280;10054;59.332;18.244;2022-08-19T11:09:06;100845.72;;;29.74;54.92
19789;BME280;10054;59.332;18.244;2022-08-19T11:11:35;100851.34;;;29.80;54.65
19789;BME280;10054;59.332;18.244;2022-08-19T11:14:08;100846.09;;;29.85;54.51
19789;BME280;10054;59.332;18.244;2022-08-19T11:16:37;100849.40;;;29.93;54.42
19789;BME280;10054;59.332;18.244;2022-08-19T11:19:09;100859.02;;;29.96;52.86
19789;BME280;10054;59.332;18.244;2022-08-19T11:21:41;100859.32;;;29.97;52.93
19789;BME280;10054;59.332;18.244;2022-08-19T11:24:13;100855.15;;;29.94;52.95
19789;BME280;10054;59.332;18.244;2022-08-19T11:26:43;100852.37;;;29.85;52.07
19789;BME280;10054;59.332;18.244;2022-08-19T11:29:13;100847.20;;;29.93;53.92
19789;BME280;10054;59.332;18.244;2022-08-19T11:31:44;100853.05;;;29.96;52.82
19789;BME280;10054;59.332;18.244;2022-08-19T11:34:23;100845.94;;;30.02;52.24
19789;BME280;10054;59.332;18.244;2022-08-19T11:36:49;100844.23;;;30.07;51.23
19789;BME280;10054;59.332;18.244;2022-08-19T11:39:20;100835.19;;;30.14;53.03
19789;BME280;10054;59.332;18.244;2022-08-19T11:41:50;100835.54;;;30.08;51.38
19789;BME280;10054;59.332;18.244;2022-08-19T11:44:19;100839.41;;;30.10;53.57
19789;BME280;10054;59.332;18.244;2022-08-19T11:46:48;100839.58;;;30.15;54.38
19789;BME280;10054;59.332;18.244;2022-08-19T11:49:18;100845.64;;;30.17;53.10
19789;BME280;10054;59.332;18.244;2022-08-19T11:51:49;100833.52;;;30.13;54.51
19789;BME280;10054;59.332;18.244;2022-08-19T11:54:18;100841.65;;;30.19;53.77
19789;BME280;10054;59.332;18.244;2022-08-19T11:56:47;100842.97;;;30.26;53.34
19789;BME280;10054;59.332;18.244;2022-08-19T11:59:16;100845.16;;;30.26;53.30
19789;BME280;10054;59.332;18.244;2022-08-19T12:01:45;100841.47;;;30.30;53.86
19789;BME280;10054;59.332;18.244;2022-08-19T12:04:15;100840.73;;;30.32;53.61
19789;BME280;10054;59.332;18.244;2022-08-19T12:06:44;100839.80;;;30.29;52.36
19789;BME280;10054;59.332;18.244;2022-08-19T12:09:13;100844.55;;;30.24;53.03
19789;BME280;10054;59.332;18.244;2022-08-19T12:11:43;100844.85;;;30.25;53.04
19789;BME280;10054;59.332;18.244;2022-08-19T12:14:15;100839.54;;;30.21;52.62
19789;BME280;10054;59.332;18.244;2022-08-19T12:16:45;100837.17;;;30.16;52.04
19789;BME280;10054;59.332;18.244;2022-08-19T12:19:14;100836.25;;;30.13;50.89
19789;BME280;10054;59.332;18.244;2022-08-19T12:21:43;100840.02;;;30.12;52.30
19789;BME280;10054;59.332;18.244;2022-08-19T12:24:12;100835.76;;;30.06;52.29
19789;BME280;10054;59.332;18.244;2022-08-19T12:26:41;100840.67;;;30.07;53.33
19789;BME280;10054;59.332;18.244;2022-08-19T12:29:10;100844.63;;;30.11;53.48
19789;BME280;10054;59.332;18.244;2022-08-19T12:31:40;100847.08;;;30.03;54.45
19789;BME280;10054;59.332;18.244;2022-08-19T12:34:09;100847.26;;;30.08;54.93
19789;BME280;10054;59.332;18.244;2022-08-19T12:36:38;100844.41;;;30.13;54.62
19789;BME280;10054;59.332;18.244;2022-08-19T12:39:07;100844.41;;;30.13;53.78
19789;BME280;10054;59.332;18.244;2022-08-19T12:41:37;100838.17;;;30.05;53.93
19789;BME280;10054;59.332;18.244;2022-08-19T12:44:06;100848.34;;;30.01;54.22
19789;BME280;10054;59.332;18.244;2022-08-19T12:46:36;100846.34;;;29.99;55.37
19789;BME280;10054;59.332;18.244;2022-08-19T12:49:05;100841.64;;;30.03;55.49
19789;BME280;10054;59.332;18.244;2022-08-19T12:51:34;100836.99;;;30.11;55.51
19789;BME280;10054;59.332;18.244;2022-08-19T12:54:04;100836.06;;;30.07;55.64
19789;BME280;10054;59.332;18.244;2022-08-19T12:56:33;100833.69;;;30.02;55.52
19789;BME280;10054;59.332;18.244;2022-08-19T12:59:03;100832.95;;;30.04;55.23
19789;BME280;10054;59.332;18.244;2022-08-19T13:01:32;100828.52;;;30.10;53.49
19789;BME280;10054;59.332;18.244;2022-08-19T13:04:02;100826.02;;;30.08;52.87